Terminal Aerodrome Forecast
Issued by NWS Detroit/Pontiac, MI

Home | Current Version | Previous Version | Text Only | Print | Product List | Glossary On
Versions: 1 2 3 4 5 6 7 8 9 10 11 12 13 14 15 16
377
FTUS43 KDTX 290841 AAA
TAFFNT
TAF AMD
KFNT 290841Z 2909/3006 05010KT P6SM SCT040 OVC080
     FM291100 05010KT 6SM -SHRA BR OVC015
     FM291600 07013KT 6SM -SHRA OVC025
     FM292200 05007KT 3SM -SHRA BR OVC015=

USA.gov is the U.S. government's official web portal to all federal, state and local government web resources and services.